x

Central Gulf Of Alaska - 265nm West Of Cape Ommaney, Akk (46085) Wave Buoy

2:50pm - Thu 28th Jul 2016 All times are UTC.

  • Sig Wave height 7.5ft
  • Peak Period 7s
  • Average Period 6s
  • Wind
    20mph, 25mph gusts
  • Sea Temp 58°f
  • Air Temp 56°f
  • Sea Pressure 1016.1mb

More Historic Weather Station data

Upgrade to MSW Pro to gain access to the past 30 days of data for over 8000 Wavebouys and Weather Stations around the globe.

Join Pro

Comparision Forecast

View Surf forecast
   
Thu 07/28 2:50pm 7.5ft 7s 6s 20 25 mph 1016.1mb 58f 56f
1:50pm 8ft 7s 5s 22 27 mph 1015.8mb 58f 56f
12:50pm 8ft 7s 6s 22 27 mph 1015.7mb 58f 57f
11:50am 7.5ft 7s 5s 22 27 mph 1015.7mb 58f 57f
10:50am 7ft 8s 5s 20 25 mph 1015.5mb 58f 57f
9:50am 6.5ft 8s 5s 22 27 mph 1015.2mb 58f 57f
8:50am 6.5ft 8s 5s 22 29 mph 1014.5mb 58f 57f
7:50am 7.5ft 7s 5s 20 25 mph 1013.9mb 58f 57f
6:50am 6ft 7s 5s 20 25 mph 1013.3mb 58f 57f
5:50am 6ft 7s 5s 20 25 mph 1012.5mb 58f 57f
4:50am 6ft 7s 5s 20 22 mph 1011.4mb 58f 56f
3:50am 6ft 7s 5s 20 22 mph 1010.8mb 58f 57f
2:50am 6.5ft 7s 5s 18 22 mph 1010.4mb 58f 57f
1:50am 6.5ft 7s 5s 18 22 mph 1010mb 58f 57f
12:50am 7ft 7s 5s 18 20 mph 1009.4mb 58f 57f
Wed 07/27 11:50pm 7ft 7s 5s 20 25 mph 1009.1mb 58f 57f
10:50pm 7ft 7s 5s 20 22 mph 1008.9mb 58f 57f
9:50pm 7ft 6s 5s 22 27 mph 1008.9mb 58f 57f
8:50pm 6.5ft 6s 5s 25 29 mph 1008.9mb 58f 57f
7:50pm 6.5ft 6s 5s 22 27 mph 1009mb 58f 57f
6:50pm 5.5ft 5s 5s 22 27 mph 1009mb 58f 57f
5:50pm 6ft 5s 5s 22 25 mph 1009.1mb 58f 57f
4:50pm 5ft 5s 5s 20 25 mph 1009.2mb 58f 57f
3:50pm 5.5ft 5s 5s 20 25 mph 1009.4mb 58f 57f
2:50pm 5ft 7s 5s 20 25 mph 1009.4mb 58f 57f
1:50pm 5ft 7s 5s 18 22 mph 1009.5mb 58f 57f
12:50pm 5.5ft 8s 5s 16 20 mph 1009.6mb 58f 57f
11:50am 5ft 8s 5s 16 20 mph 1009.8mb 58f 57f
10:50am 5ft 8s 5s 13 18 mph 1010.3mb 58f 57f
9:50am 5.5ft 8s 5s 13 16 mph 1010.8mb 58f 57f
8:50am 5ft 7s 5s 16 18 mph 1011.6mb 58f 57f
7:50am 5.5ft 8s 5s 16 18 mph 1012.3mb 58f 57f
6:50am 6ft 8s 5s 18 20 mph 1012.5mb 58f 57f
5:50am 6ft 8s 5s 16 20 mph 1012.6mb 58f 57f
4:50am 6ft 8s 5s 16 20 mph 1012.6mb 58f 57f
3:50am 6ft 8s 5s 16 20 mph 1012.7mb 58f 57f
2:50am 6.5ft 7s 5s 13 18 mph 1013mb 58f 57f
1:50am 6ft 7s 5s 18 20 mph 1012.8mb 58f 57f
12:50am 6ft 7s 5s 16 18 mph 1012.9mb 58f 57f
Tue 07/26 11:50pm 5.5ft 7s 5s 16 18 mph 1013mb 58f 57f
10:50pm 6ft 7s 5s 13 18 mph 1013.1mb 58f 57f
9:50pm 5.5ft 6s 5s 16 20 mph 1012.6mb 58f 57f
8:50pm 6ft 6s 5s 18 22 mph 1012.2mb 58f 57f
7:50pm 6ft 6s 5s 18 20 mph 1011.9mb 58f 57f
6:50pm 5.5ft 6s 5s 18 22 mph 1011.6mb 58f 57f
5:50pm 5.5ft 6s 5s 18 22 mph 1011.3mb 58f 57f
4:50pm 5ft 5s 5s 20 22 mph 1011mb 58f 56f
3:50pm 5.5ft 6s 5s 18 22 mph 1010.8mb 58f 56f
2:50pm 5ft 6s 5s 18 20 mph 1010.7mb 58f 56f
1:50pm 5ft 5s 5s 18 22 mph 1010.8mb 58f 56f
12:50pm 5ft 5s 5s 16 18 mph 1010.8mb 58f 56f
11:50am 5ft 6s 5s 11 13 mph 1010.9mb 58f 55f
10:50am 5ft 5s 5s 13 16 mph 1011.1mb 58f 56f
9:50am 5ft 15s 5s 16 18 mph 1011.2mb 58f 56f
8:50am 5ft 6s 5s 16 18 mph 1011mb 58f 56f
7:50am 5ft 7s 5s 18 20 mph 1010.6mb 58f 55f
6:50am 4.5ft 7s 5s 18 20 mph 1009.6mb 58f 55f
5:50am 4.5ft 7s 5s 11 13 mph 1009.1mb 58f 57f
4:50am 4.5ft 8s 6s 13 16 mph 1009.1mb 58f 56f
3:50am 4.5ft 9s 6s 13 16 mph 1009.2mb 58f 56f
2:50am 4.5ft 8s 6s 9
mph
1009.6mb 58f 56f
1:50am 4.5ft 8s 5s 9
mph
1010.2mb 58f 55f
12:50am 5ft 7s 5s 9 11 mph 1010.8mb 58f 55f
Mon 07/25 11:50pm 5ft 7s 5s 11
mph
1011.3mb 58f 55f
10:50pm 5.5ft 8s 5s 13 16 mph 1011.8mb 58f 55f
9:50pm 6ft 6s 6s 13 18 mph 1012.3mb 58f 56f
8:50pm 5ft 8s 5s 16 18 mph 1012.6mb 58f 56f
7:50pm 5ft 8s 5s 13 18 mph 1012.7mb 58f 55f
6:50pm 5ft 8s 5s 16 18 mph 1012.8mb 58f 55f
5:50pm 5ft 8s 5s 16 20 mph 1012.9mb 58f 55f
4:50pm 5ft 8s 5s 13 18 mph 1012.8mb 58f 54f
3:50pm 5.5ft 7s 5s 18 20 mph 1012.8mb 58f 55f
2:50pm 5.5ft 8s 5s 18 22 mph 1012.7mb 58f 55f
1:50pm 6ft 8s 5s 13 18 mph 1013mb 58f 55f
12:50pm 6.5ft 8s 6s 16 20 mph 1013.3mb 58f 54f
11:50am 7ft 8s 6s 18 20 mph 1013.4mb 58f 55f
10:50am 7ft 9s 6s 18 20 mph 1013.7mb 58f 55f
9:50am 7ft 8s 6s 16 18 mph 1013.9mb 58f 55f
8:50am 7ft 8s 6s 18 22 mph 1014mb 58f 55f
7:50am 6ft 7s 5s 16 18 mph 1014.2mb 58f 56f
6:50am 6.5ft 8s 5s 16 20 mph 1014.3mb 58f 55f
5:50am 7ft 8s 6s 18 22 mph 1013.9mb 58f 56f
4:50am 7ft 9s 6s 18 20 mph 1013.6mb 58f 56f
3:50am 7ft 9s 6s 18 20 mph 1013.4mb 58f 56f
2:50am 7ft 9s 6s 18 22 mph 1013.3mb 58f 56f
1:50am 8ft 9s 6s 20 22 mph 1013.3mb 58f 57f
12:50am 8.5ft 9s 6s 22 27 mph 1013.3mb 58f 57f
Sun 07/24 11:50pm 8ft 9s 6s 22 25 mph 1013.3mb 58f 56f
10:50pm 8ft 9s 6s 20 25 mph 1013.2mb 58f 56f
9:50pm 9ft 9s 6s 20 25 mph 1013mb 58f 55f
8:50pm 9ft 10s 6s 22 27 mph 1012.9mb 58f 56f
7:50pm 8ft 9s 6s 18 25 mph 1012.6mb 58f 56f
6:50pm 8.5ft 10s 6s 20 25 mph 1012.3mb 58f 56f
5:50pm 8.5ft 9s 6s 22 27 mph 1012.1mb 58f 56f
4:50pm 8.5ft 9s 6s 16 20 mph 1011.8mb 58f 56f
3:50pm 10ft 9s 7s 16 20 mph 1011.4mb 58f 57f